sensor_id;sensor_type;location;lat;lon;timestamp;temperature;humidity
25640;DHT22;13497;48.322;16.204;2024-02-23T00:01:28;8.50;99.90
25640;DHT22;13497;48.322;16.204;2024-02-23T00:03:54;8.50;99.90
25640;DHT22;13497;48.322;16.204;2024-02-23T00:06:21;8.30;99.90
25640;DHT22;13497;48.322;16.204;2024-02-23T00:08:48;8.40;99.90
25640;DHT22;13497;48.322;16.204;2024-02-23T00:11:14;8.40;99.90
25640;DHT22;13497;48.322;16.204;2024-02-23T00:13:40;8.30;99.90
25640;DHT22;13497;48.322;16.204;2024-02-23T00:16:05;8.30;99.90
25640;DHT22;13497;48.322;16.204;2024-02-23T00:18:31;8.30;99.90
25640;DHT22;13497;48.322;16.204;2024-02-23T00:20:57;8.40;99.90
25640;DHT22;13497;48.322;16.204;2024-02-23T00:23:22;8.20;99.90
25640;DHT22;13497;48.322;16.204;2024-02-23T00:25:48;8.30;99.90
25640;DHT22;13497;48.322;16.204;2024-02-23T00:28:14;8.30;99.90
25640;DHT22;13497;48.322;16.204;2024-02-23T00:30:39;8.30;99.90
25640;DHT22;13497;48.322;16.204;2024-02-23T00:33:05;8.20;99.90
25640;DHT22;13497;48.322;16.204;2024-02-23T00:35:30;8.30;99.90
25640;DHT22;13497;48.322;16.204;2024-02-23T00:37:56;8.40;99.90
25640;DHT22;13497;48.322;16.204;2024-02-23T00:40:22;8.40;99.90
25640;DHT22;13497;48.322;16.204;2024-02-23T00:42:48;8.40;99.90
25640;DHT22;13497;48.322;16.204;2024-02-23T00:45:14;8.20;99.90
25640;DHT22;13497;48.322;16.204;2024-02-23T00:47:40;8.10;99.90
25640;DHT22;13497;48.322;16.204;2024-02-23T00:50:06;8.10;99.90
25640;DHT22;13497;48.322;16.204;2024-02-23T00:52:32;8.10;99.90
25640;DHT22;13497;48.322;16.204;2024-02-23T00:54:58;8.10;99.90
25640;DHT22;13497;48.322;16.204;2024-02-23T00:57:24;8.10;99.90
25640;DHT22;13497;48.322;16.204;2024-02-23T00:59:57;8.10;99.90
25640;DHT22;13497;48.322;16.204;2024-02-23T01:02:23;8.10;99.90
25640;DHT22;13497;48.322;16.204;2024-02-23T01:04:49;8.10;99.90
25640;DHT22;13497;48.322;16.204;2024-02-23T01:07:14;8.10;99.90
25640;DHT22;13497;48.322;16.204;2024-02-23T01:09:40;8.20;99.90
25640;DHT22;13497;48.322;16.204;2024-02-23T01:12:06;8.30;99.90
25640;DHT22;13497;48.322;16.204;2024-02-23T01:14:31;8.40;99.90
25640;DHT22;13497;48.322;16.204;2024-02-23T01:16:57;8.30;99.90
25640;DHT22;13497;48.322;16.204;2024-02-23T01:19:23;8.30;99.90
25640;DHT22;13497;48.322;16.204;2024-02-23T01:21:49;8.20;99.90
25640;DHT22;13497;48.322;16.204;2024-02-23T01:24:21;8.10;99.90
25640;DHT22;13497;48.322;16.204;2024-02-23T01:26:47;8.00;99.90
25640;DHT22;13497;48.322;16.204;2024-02-23T01:29:13;8.00;99.90
25640;DHT22;13497;48.322;16.204;2024-02-23T01:31:38;7.90;99.90
25640;DHT22;13497;48.322;16.204;2024-02-23T01:34:04;7.90;99.90
25640;DHT22;13497;48.322;16.204;2024-02-23T01:36:30;7.90;99.90
25640;DHT22;13497;48.322;16.204;2024-02-23T01:38:55;7.90;99.90
25640;DHT22;13497;48.322;16.204;2024-02-23T01:41:21;7.90;99.90
25640;DHT22;13497;48.322;16.204;2024-02-23T01:43:46;7.90;99.90
25640;DHT22;13497;48.322;16.204;2024-02-23T01:46:12;8.00;99.90
25640;DHT22;13497;48.322;16.204;2024-02-23T01:48:39;7.90;99.90
25640;DHT22;13497;48.322;16.204;2024-02-23T01:51:04;8.00;99.90
25640;DHT22;13497;48.322;16.204;2024-02-23T01:53:30;7.90;99.90
25640;DHT22;13497;48.322;16.204;2024-02-23T01:55:56;7.90;99.90
25640;DHT22;13497;48.322;16.204;2024-02-23T01:58:22;8.00;99.90
25640;DHT22;13497;48.322;16.204;2024-02-23T02:00:49;8.00;99.90
25640;DHT22;13497;48.322;16.204;2024-02-23T02:03:15;8.00;99.90
25640;DHT22;13497;48.322;16.204;2024-02-23T02:05:40;7.90;99.90
25640;DHT22;13497;48.322;16.204;2024-02-23T02:08:06;8.00;99.90
25640;DHT22;13497;48.322;16.204;2024-02-23T02:10:32;8.10;99.90
25640;DHT22;13497;48.322;16.204;2024-02-23T02:13:05;8.00;99.90
25640;DHT22;13497;48.322;16.204;2024-02-23T02:15:31;8.00;99.90
25640;DHT22;13497;48.322;16.204;2024-02-23T02:17:57;8.10;99.90
25640;DHT22;13497;48.322;16.204;2024-02-23T02:20:24;8.10;99.90
25640;DHT22;13497;48.322;16.204;2024-02-23T02:22:51;8.10;99.90
25640;DHT22;13497;48.322;16.204;2024-02-23T02:25:18;8.20;99.90
25640;DHT22;13497;48.322;16.204;2024-02-23T02:27:43;8.10;99.90
25640;DHT22;13497;48.322;16.204;2024-02-23T02:30:11;8.00;99.90
25640;DHT22;13497;48.322;16.204;2024-02-23T02:32:37;7.90;99.90
25640;DHT22;13497;48.322;16.204;2024-02-23T02:35:03;7.80;99.90
25640;DHT22;13497;48.322;16.204;2024-02-23T02:37:29;7.80;99.90
25640;DHT22;13497;48.322;16.204;2024-02-23T02:39:55;7.80;99.90
25640;DHT22;13497;48.322;16.204;2024-02-23T02:42:20;7.70;99.90
25640;DHT22;13497;48.322;16.204;2024-02-23T02:44:46;7.70;99.90
25640;DHT22;13497;48.322;16.204;2024-02-23T02:47:12;7.70;99.90
25640;DHT22;13497;48.322;16.204;2024-02-23T02:49:39;7.70;99.90
25640;DHT22;13497;48.322;16.204;2024-02-23T02:52:05;7.70;99.90
25640;DHT22;13497;48.322;16.204;2024-02-23T02:54:31;7.80;99.90
25640;DHT22;13497;48.322;16.204;2024-02-23T02:56:57;7.90;99.90
25640;DHT22;13497;48.322;16.204;2024-02-23T02:59:23;7.90;99.90
25640;DHT22;13497;48.322;16.204;2024-02-23T03:01:49;7.90;99.90
25640;DHT22;13497;48.322;16.204;2024-02-23T03:04:15;7.90;99.90
25640;DHT22;13497;48.322;16.204;2024-02-23T03:06:40;7.90;99.90
25640;DHT22;13497;48.322;16.204;2024-02-23T03:09:06;7.90;99.90
25640;DHT22;13497;48.322;16.204;2024-02-23T03:11:32;8.00;99.90
25640;DHT22;13497;48.322;16.204;2024-02-23T03:13:58;8.00;99.90
25640;DHT22;13497;48.322;16.204;2024-02-23T03:16:24;8.10;99.90
25640;DHT22;13497;48.322;16.204;2024-02-23T03:18:51;8.00;99.90
25640;DHT22;13497;48.322;16.204;2024-02-23T03:21:17;7.90;99.90
25640;DHT22;13497;48.322;16.204;2024-02-23T03:23:43;7.90;99.90
25640;DHT22;13497;48.322;16.204;2024-02-23T03:26:10;7.80;99.90
25640;DHT22;13497;48.322;16.204;2024-02-23T03:28:36;7.70;99.90
25640;DHT22;13497;48.322;16.204;2024-02-23T03:31:01;7.60;99.90
25640;DHT22;13497;48.322;16.204;2024-02-23T03:33:27;7.60;99.90
25640;DHT22;13497;48.322;16.204;2024-02-23T03:35:53;7.60;99.90
25640;DHT22;13497;48.322;16.204;2024-02-23T03:38:18;7.50;99.90
25640;DHT22;13497;48.322;16.204;2024-02-23T03:40:44;7.40;99.90
25640;DHT22;13497;48.322;16.204;2024-02-23T03:43:10;7.50;99.90
25640;DHT22;13497;48.322;16.204;2024-02-23T03:45:36;7.50;99.90
25640;DHT22;13497;48.322;16.204;2024-02-23T03:48:03;7.60;99.90
25640;DHT22;13497;48.322;16.204;2024-02-23T03:50:30;7.60;99.90
25640;DHT22;13497;48.322;16.204;2024-02-23T03:52:55;7.70;99.90
25640;DHT22;13497;48.322;16.204;2024-02-23T03:55:21;7.70;99.90
25640;DHT22;13497;48.322;16.204;2024-02-23T03:57:48;7.70;99.90
25640;DHT22;13497;48.322;16.204;2024-02-23T04:00:14;7.80;99.90
25640;DHT22;13497;48.322;16.204;2024-02-23T04:02:40;7.80;99.90
25640;DHT22;13497;48.322;16.204;2024-02-23T04:05:06;7.70;99.90
25640;DHT22;13497;48.322;16.204;2024-02-23T04:07:32;7.70;99.90
25640;DHT22;13497;48.322;16.204;2024-02-23T04:09:58;7.70;99.90
25640;DHT22;13497;48.322;16.204;2024-02-23T04:12:24;7.70;99.90
25640;DHT22;13497;48.322;16.204;2024-02-23T04:14:49;7.70;99.90
25640;DHT22;13497;48.322;16.204;2024-02-23T04:17:15;7.70;99.90
25640;DHT22;13497;48.322;16.204;2024-02-23T04:19:42;7.80;99.90
25640;DHT22;13497;48.322;16.204;2024-02-23T04:22:08;7.70;99.90
25640;DHT22;13497;48.322;16.204;2024-02-23T04:24:36;7.80;99.90
25640;DHT22;13497;48.322;16.204;2024-02-23T04:27:01;7.80;99.90
25640;DHT22;13497;48.322;16.204;2024-02-23T04:29:27;7.80;99.90
25640;DHT22;13497;48.322;16.204;2024-02-23T04:31:53;7.80;99.90
25640;DHT22;13497;48.322;16.204;2024-02-23T04:34:18;7.80;99.90
25640;DHT22;13497;48.322;16.204;2024-02-23T04:36:44;7.90;99.90
25640;DHT22;13497;48.322;16.204;2024-02-23T04:39:10;7.90;99.90
25640;DHT22;13497;48.322;16.204;2024-02-23T04:41:35;7.90;99.90
25640;DHT22;13497;48.322;16.204;2024-02-23T04:44:01;7.90;99.90
25640;DHT22;13497;48.322;16.204;2024-02-23T04:46:27;8.00;99.90
25640;DHT22;13497;48.322;16.204;2024-02-23T04:48:53;8.00;99.90
25640;DHT22;13497;48.322;16.204;2024-02-23T04:51:18;8.00;99.90
25640;DHT22;13497;48.322;16.204;2024-02-23T04:53:44;8.00;99.90
25640;DHT22;13497;48.322;16.204;2024-02-23T04:56:10;8.00;99.90
25640;DHT22;13497;48.322;16.204;2024-02-23T04:58:36;8.10;99.90
25640;DHT22;13497;48.322;16.204;2024-02-23T05:01:03;8.10;99.90
25640;DHT22;13497;48.322;16.204;2024-02-23T05:03:29;8.10;99.90
25640;DHT22;13497;48.322;16.204;2024-02-23T05:05:54;8.10;99.90
25640;DHT22;13497;48.322;16.204;2024-02-23T05:08:20;8.10;99.90
25640;DHT22;13497;48.322;16.204;2024-02-23T05:10:47;8.20;99.90
25640;DHT22;13497;48.322;16.204;2024-02-23T05:13:13;8.20;99.90
25640;DHT22;13497;48.322;16.204;2024-02-23T05:15:39;8.20;99.90
25640;DHT22;13497;48.322;16.204;2024-02-23T05:18:05;8.20;99.90
25640;DHT22;13497;48.322;16.204;2024-02-23T05:20:30;8.30;99.90
25640;DHT22;13497;48.322;16.204;2024-02-23T05:22:56;8.30;99.90
25640;DHT22;13497;48.322;16.204;2024-02-23T05:25:22;8.30;99.90
25640;DHT22;13497;48.322;16.204;2024-02-23T05:27:47;8.30;99.90
25640;DHT22;13497;48.322;16.204;2024-02-23T05:30:13;8.30;99.90
25640;DHT22;13497;48.322;16.204;2024-02-23T05:32:39;8.30;99.90
25640;DHT22;13497;48.322;16.204;2024-02-23T05:35:05;8.20;99.90
25640;DHT22;13497;48.322;16.204;2024-02-23T05:37:31;8.30;99.90
25640;DHT22;13497;48.322;16.204;2024-02-23T05:39:56;8.20;99.90
25640;DHT22;13497;48.322;16.204;2024-02-23T05:42:25;8.20;99.90
25640;DHT22;13497;48.322;16.204;2024-02-23T05:44:51;8.20;99.90
25640;DHT22;13497;48.322;16.204;2024-02-23T05:47:16;8.30;99.90
25640;DHT22;13497;48.322;16.204;2024-02-23T05:49:43;8.20;99.90
25640;DHT22;13497;48.322;16.204;2024-02-23T05:52:09;8.30;99.90
25640;DHT22;13497;48.322;16.204;2024-02-23T05:54:35;8.30;99.90
25640;DHT22;13497;48.322;16.204;2024-02-23T05:57:00;8.30;99.90
25640;DHT22;13497;48.322;16.204;2024-02-23T05:59:26;8.30;99.90
25640;DHT22;13497;48.322;16.204;2024-02-23T06:01:52;8.30;99.90
25640;DHT22;13497;48.322;16.204;2024-02-23T06:04:22;8.30;99.90
25640;DHT22;13497;48.322;16.204;2024-02-23T06:06:48;8.30;99.90
25640;DHT22;13497;48.322;16.204;2024-02-23T06:09:14;8.30;99.90
25640;DHT22;13497;48.322;16.204;2024-02-23T06:11:39;8.30;99.90
25640;DHT22;13497;48.322;16.204;2024-02-23T06:14:05;8.30;99.90
25640;DHT22;13497;48.322;16.204;2024-02-23T06:16:31;8.30;99.90
25640;DHT22;13497;48.322;16.204;2024-02-23T06:18:56;8.30;99.90
25640;DHT22;13497;48.322;16.204;2024-02-23T06:21:23;8.30;99.90
25640;DHT22;13497;48.322;16.204;2024-02-23T06:23:49;8.30;99.90
25640;DHT22;13497;48.322;16.204;2024-02-23T06:26:15;8.30;99.90
25640;DHT22;13497;48.322;16.204;2024-02-23T06:28:41;8.30;99.90
25640;DHT22;13497;48.322;16.204;2024-02-23T06:31:09;8.30;99.90
25640;DHT22;13497;48.322;16.204;2024-02-23T06:33:35;8.30;99.90
25640;DHT22;13497;48.322;16.204;2024-02-23T06:36:01;8.30;99.90
25640;DHT22;13497;48.322;16.204;2024-02-23T06:38:28;8.30;99.90
25640;DHT22;13497;48.322;16.204;2024-02-23T06:40:54;8.40;99.90
25640;DHT22;13497;48.322;16.204;2024-02-23T06:43:21;8.40;99.90
25640;DHT22;13497;48.322;16.204;2024-02-23T06:45:47;8.40;99.90
25640;DHT22;13497;48.322;16.204;2024-02-23T06:48:12;8.40;99.90
25640;DHT22;13497;48.322;16.204;2024-02-23T06:50:38;8.40;99.90
25640;DHT22;13497;48.322;16.204;2024-02-23T06:53:04;8.50;99.90
25640;DHT22;13497;48.322;16.204;2024-02-23T06:55:33;8.50;99.90
25640;DHT22;13497;48.322;16.204;2024-02-23T06:57:59;8.60;99.90
25640;DHT22;13497;48.322;16.204;2024-02-23T07:00:25;8.70;99.90
25640;DHT22;13497;48.322;16.204;2024-02-23T07:02:50;8.70;99.90
25640;DHT22;13497;48.322;16.204;2024-02-23T07:05:17;8.80;99.90
25640;DHT22;13497;48.322;16.204;2024-02-23T07:07:43;8.80;99.90
25640;DHT22;13497;48.322;16.204;2024-02-23T07:10:09;8.90;99.90
25640;DHT22;13497;48.322;16.204;2024-02-23T07:12:36;8.90;99.90
25640;DHT22;13497;48.322;16.204;2024-02-23T07:15:02;8.90;99.90
25640;DHT22;13497;48.322;16.204;2024-02-23T07:17:27;8.90;99.90
25640;DHT22;13497;48.322;16.204;2024-02-23T07:19:56;8.90;99.90
25640;DHT22;13497;48.322;16.204;2024-02-23T07:22:30;8.90;99.90
25640;DHT22;13497;48.322;16.204;2024-02-23T07:24:55;8.90;99.90
25640;DHT22;13497;48.322;16.204;2024-02-23T07:27:21;9.00;99.90
25640;DHT22;13497;48.322;16.204;2024-02-23T07:29:47;9.00;99.90
25640;DHT22;13497;48.322;16.204;2024-02-23T07:32:13;9.00;99.90
25640;DHT22;13497;48.322;16.204;2024-02-23T07:34:39;8.90;99.90
25640;DHT22;13497;48.322;16.204;2024-02-23T07:37:05;8.90;99.90
25640;DHT22;13497;48.322;16.204;2024-02-23T07:39:30;8.90;99.90
25640;DHT22;13497;48.322;16.204;2024-02-23T07:41:56;9.00;99.90
25640;DHT22;13497;48.322;16.204;2024-02-23T07:44:22;8.90;99.90
25640;DHT22;13497;48.322;16.204;2024-02-23T07:46:48;8.90;99.90
25640;DHT22;13497;48.322;16.204;2024-02-23T07:49:13;8.90;99.90
25640;DHT22;13497;48.322;16.204;2024-02-23T07:51:39;8.80;99.90
25640;DHT22;13497;48.322;16.204;2024-02-23T07:54:05;8.80;99.90
25640;DHT22;13497;48.322;16.204;2024-02-23T07:56:30;8.70;99.90
25640;DHT22;13497;48.322;16.204;2024-02-23T07:58:56;8.80;99.90
25640;DHT22;13497;48.322;16.204;2024-02-23T08:01:22;8.80;99.90
25640;DHT22;13497;48.322;16.204;2024-02-23T08:03:48;8.80;99.90
25640;DHT22;13497;48.322;16.204;2024-02-23T08:06:14;8.70;99.90
25640;DHT22;13497;48.322;16.204;2024-02-23T08:08:40;8.80;99.90
25640;DHT22;13497;48.322;16.204;2024-02-23T08:11:05;8.80;99.90
25640;DHT22;13497;48.322;16.204;2024-02-23T08:13:31;8.80;99.90
25640;DHT22;13497;48.322;16.204;2024-02-23T08:15:58;8.80;99.90
25640;DHT22;13497;48.322;16.204;2024-02-23T08:18:24;8.80;99.90
25640;DHT22;13497;48.322;16.204;2024-02-23T08:20:49;8.80;99.90
25640;DHT22;13497;48.322;16.204;2024-02-23T08:23:15;8.90;99.90
25640;DHT22;13497;48.322;16.204;2024-02-23T08:25:40;8.90;99.90
25640;DHT22;13497;48.322;16.204;2024-02-23T08:28:06;8.90;99.90
25640;DHT22;13497;48.322;16.204;2024-02-23T08:30:32;8.90;99.90
25640;DHT22;13497;48.322;16.204;2024-02-23T08:32:58;9.00;99.90
25640;DHT22;13497;48.322;16.204;2024-02-23T08:35:25;8.90;99.90
25640;DHT22;13497;48.322;16.204;2024-02-23T08:37:50;8.80;99.90
25640;DHT22;13497;48.322;16.204;2024-02-23T08:40:16;8.90;99.90
25640;DHT22;13497;48.322;16.204;2024-02-23T08:42:41;8.80;99.90
25640;DHT22;13497;48.322;16.204;2024-02-23T08:45:08;8.80;99.90
25640;DHT22;13497;48.322;16.204;2024-02-23T08:47:35;8.80;99.90
25640;DHT22;13497;48.322;16.204;2024-02-23T08:50:01;8.80;99.90
25640;DHT22;13497;48.322;16.204;2024-02-23T08:52:28;8.70;99.90
25640;DHT22;13497;48.322;16.204;2024-02-23T08:54:53;8.70;99.90
25640;DHT22;13497;48.322;16.204;2024-02-23T08:57:19;8.60;99.90
25640;DHT22;13497;48.322;16.204;2024-02-23T08:59:46;8.70;99.90
25640;DHT22;13497;48.322;16.204;2024-02-23T09:02:17;8.70;99.90
25640;DHT22;13497;48.322;16.204;2024-02-23T09:04:46;8.70;99.90
25640;DHT22;13497;48.322;16.204;2024-02-23T09:07:13;8.80;99.90
25640;DHT22;13497;48.322;16.204;2024-02-23T09:09:39;8.80;99.90
25640;DHT22;13497;48.322;16.204;2024-02-23T09:12:06;8.90;99.90
25640;DHT22;13497;48.322;16.204;2024-02-23T09:14:36;8.90;99.90
25640;DHT22;13497;48.322;16.204;2024-02-23T09:17:04;9.00;99.90
25640;DHT22;13497;48.322;16.204;2024-02-23T09:19:30;9.00;99.90
25640;DHT22;13497;48.322;16.204;2024-02-23T09:21:55;9.10;99.90
25640;DHT22;13497;48.322;16.204;2024-02-23T09:24:21;9.20;99.90
25640;DHT22;13497;48.322;16.204;2024-02-23T09:26:47;9.20;99.90
25640;DHT22;13497;48.322;16.204;2024-02-23T09:29:13;9.30;99.90
25640;DHT22;13497;48.322;16.204;2024-02-23T09:31:39;9.50;99.90
25640;DHT22;13497;48.322;16.204;2024-02-23T09:34:04;9.60;99.90
25640;DHT22;13497;48.322;16.204;2024-02-23T09:36:30;9.70;99.90
25640;DHT22;13497;48.322;16.204;2024-02-23T09:38:56;9.90;99.90
25640;DHT22;13497;48.322;16.204;2024-02-23T09:41:23;10.10;99.90
25640;DHT22;13497;48.322;16.204;2024-02-23T09:43:50;10.20;99.90
25640;DHT22;13497;48.322;16.204;2024-02-23T09:46:16;10.30;99.90
25640;DHT22;13497;48.322;16.204;2024-02-23T09:48:43;10.50;99.90
25640;DHT22;13497;48.322;16.204;2024-02-23T09:51:09;10.40;99.90
25640;DHT22;13497;48.322;16.204;2024-02-23T09:53:37;10.40;99.90
25640;DHT22;13497;48.322;16.204;2024-02-23T09:56:04;10.50;99.90
25640;DHT22;13497;48.322;16.204;2024-02-23T09:58:35;10.50;99.90
25640;DHT22;13497;48.322;16.204;2024-02-23T10:01:02;10.40;99.90
25640;DHT22;13497;48.322;16.204;2024-02-23T10:03:29;10.30;99.90
25640;DHT22;13497;48.322;16.204;2024-02-23T10:05:59;10.30;99.90
25640;DHT22;13497;48.322;16.204;2024-02-23T10:08:27;10.40;99.90
25640;DHT22;13497;48.322;16.204;2024-02-23T10:10:54;10.30;99.90
25640;DHT22;13497;48.322;16.204;2024-02-23T10:13:22;10.40;99.90
25640;DHT22;13497;48.322;16.204;2024-02-23T10:15:52;10.40;99.90
25640;DHT22;13497;48.322;16.204;2024-02-23T10:18:18;10.20;99.90
25640;DHT22;13497;48.322;16.204;2024-02-23T10:20:44;10.20;99.90
25640;DHT22;13497;48.322;16.204;2024-02-23T10:23:10;10.20;99.90
25640;DHT22;13497;48.322;16.204;2024-02-23T10:25:37;10.20;99.90
25640;DHT22;13497;48.322;16.204;2024-02-23T10:28:03;10.10;99.90
25640;DHT22;13497;48.322;16.204;2024-02-23T10:30:28;10.10;99.90
25640;DHT22;13497;48.322;16.204;2024-02-23T10:32:58;10.20;99.90
25640;DHT22;13497;48.322;16.204;2024-02-23T10:35:24;10.10;99.90
25640;DHT22;13497;48.322;16.204;2024-02-23T10:37:51;10.10;99.90
25640;DHT22;13497;48.322;16.204;2024-02-23T10:40:19;10.20;99.90
25640;DHT22;13497;48.322;16.204;2024-02-23T10:42:47;10.30;99.90
25640;DHT22;13497;48.322;16.204;2024-02-23T10:45:20;10.30;99.90
25640;DHT22;13497;48.322;16.204;2024-02-23T10:47:53;10.30;99.90
25640;DHT22;13497;48.322;16.204;2024-02-23T10:50:22;10.40;99.90
25640;DHT22;13497;48.322;16.204;2024-02-23T10:52:50;10.50;99.90
25640;DHT22;13497;48.322;16.204;2024-02-23T10:55:16;10.70;99.90
25640;DHT22;13497;48.322;16.204;2024-02-23T10:57:43;10.70;99.90
25640;DHT22;13497;48.322;16.204;2024-02-23T11:00:10;10.80;99.90
25640;DHT22;13497;48.322;16.204;2024-02-23T11:02:46;10.80;99.90
25640;DHT22;13497;48.322;16.204;2024-02-23T11:05:15;10.90;99.90
25640;DHT22;13497;48.322;16.204;2024-02-23T11:07:41;10.90;99.90
25640;DHT22;13497;48.322;16.204;2024-02-23T11:10:08;11.00;99.90
25640;DHT22;13497;48.322;16.204;2024-02-23T11:12:35;11.10;99.90
25640;DHT22;13497;48.322;16.204;2024-02-23T11:15:02;11.10;99.90
25640;DHT22;13497;48.322;16.204;2024-02-23T11:17:32;11.20;99.90
25640;DHT22;13497;48.322;16.204;2024-02-23T11:19:58;11.30;99.90
25640;DHT22;13497;48.322;16.204;2024-02-23T11:22:31;11.30;99.90
25640;DHT22;13497;48.322;16.204;2024-02-23T11:25:17;11.30;99.90
25640;DHT22;13497;48.322;16.204;2024-02-23T11:27:43;11.30;99.90
25640;DHT22;13497;48.322;16.204;2024-02-23T11:30:10;11.10;99.90
25640;DHT22;13497;48.322;16.204;2024-02-23T11:32:44;11.00;99.90
25640;DHT22;13497;48.322;16.204;2024-02-23T11:35:12;10.90;99.90
25640;DHT22;13497;48.322;16.204;2024-02-23T11:37:48;10.80;99.90
25640;DHT22;13497;48.322;16.204;2024-02-23T11:40:17;10.90;99.90
25640;DHT22;13497;48.322;16.204;2024-02-23T11:42:43;10.80;99.90
25640;DHT22;13497;48.322;16.204;2024-02-23T11:45:09;10.70;99.90
25640;DHT22;13497;48.322;16.204;2024-02-23T11:47:37;10.60;99.90
25640;DHT22;13497;48.322;16.204;2024-02-23T11:50:03;10.70;99.90
25640;DHT22;13497;48.322;16.204;2024-02-23T11:52:29;10.70;99.90
25640;DHT22;13497;48.322;16.204;2024-02-23T11:54:55;10.70;99.90
25640;DHT22;13497;48.322;16.204;2024-02-23T11:57:22;10.60;99.90
25640;DHT22;13497;48.322;16.204;2024-02-23T11:59:50;10.40;99.90
25640;DHT22;13497;48.322;16.204;2024-02-23T12:02:15;10.40;99.90
25640;DHT22;13497;48.322;16.204;2024-02-23T12:04:41;10.50;99.90
25640;DHT22;13497;48.322;16.204;2024-02-23T12:07:06;10.50;99.90
25640;DHT22;13497;48.322;16.204;2024-02-23T12:09:33;10.40;99.90
25640;DHT22;13497;48.322;16.204;2024-02-23T12:11:59;10.50;99.90
25640;DHT22;13497;48.322;16.204;2024-02-23T12:14:25;10.60;99.90
25640;DHT22;13497;48.322;16.204;2024-02-23T12:16:52;10.70;99.90
25640;DHT22;13497;48.322;16.204;2024-02-23T12:19:17;10.90;99.90
25640;DHT22;13497;48.322;16.204;2024-02-23T12:21:46;10.80;99.90
25640;DHT22;13497;48.322;16.204;2024-02-23T12:24:12;10.90;99.90
25640;DHT22;13497;48.322;16.204;2024-02-23T12:26:38;10.60;99.90
25640;DHT22;13497;48.322;16.204;2024-02-23T12:29:04;10.50;99.90
25640;DHT22;13497;48.322;16.204;2024-02-23T12:31:33;10.50;99.90
25640;DHT22;13497;48.322;16.204;2024-02-23T12:34:00;10.50;99.90
25640;DHT22;13497;48.322;16.204;2024-02-23T12:36:26;10.40;99.90
25640;DHT22;13497;48.322;16.204;2024-02-23T12:38:51;10.30;99.90
25640;DHT22;13497;48.322;16.204;2024-02-23T12:41:17;10.10;99.90
25640;DHT22;13497;48.322;16.204;2024-02-23T12:43:43;9.90;99.90
25640;DHT22;13497;48.322;16.204;2024-02-23T12:46:08;9.80;99.90
25640;DHT22;13497;48.322;16.204;2024-02-23T12:48:37;9.70;99.90
25640;DHT22;13497;48.322;16.204;2024-02-23T12:51:04;9.50;99.90
25640;DHT22;13497;48.322;16.204;2024-02-23T12:53:35;9.50;99.90
25640;DHT22;13497;48.322;16.204;2024-02-23T12:56:05;9.40;99.90
25640;DHT22;13497;48.322;16.204;2024-02-23T12:58:33;9.40;99.90
25640;DHT22;13497;48.322;16.204;2024-02-23T13:00:59;9.50;99.90
25640;DHT22;13497;48.322;16.204;2024-02-23T13:03:26;9.50;99.90
25640;DHT22;13497;48.322;16.204;2024-02-23T13:05:55;9.50;99.90
25640;DHT22;13497;48.322;16.204;2024-02-23T13:08:25;9.40;99.90
25640;DHT22;13497;48.322;16.204;2024-02-23T13:10:52;9.40;99.90
25640;DHT22;13497;48.322;16.204;2024-02-23T13:13:18;9.30;99.90
25640;DHT22;13497;48.322;16.204;2024-02-23T13:15:45;9.20;99.90
25640;DHT22;13497;48.322;16.204;2024-02-23T13:18:11;9.20;99.90
25640;DHT22;13497;48.322;16.204;2024-02-23T13:20:40;9.30;99.90
25640;DHT22;13497;48.322;16.204;2024-02-23T13:23:10;9.30;99.90
25640;DHT22;13497;48.322;16.204;2024-02-23T13:25:40;9.20;99.90
25640;DHT22;13497;48.322;16.204;2024-02-23T13:28:06;9.20;99.90
25640;DHT22;13497;48.322;16.204;2024-02-23T13:30:33;9.20;99.90
25640;DHT22;13497;48.322;16.204;2024-02-23T13:32:59;9.10;99.90
25640;DHT22;13497;48.322;16.204;2024-02-23T13:35:25;9.00;99.90
25640;DHT22;13497;48.322;16.204;2024-02-23T13:37:51;9.10;99.90
25640;DHT22;13497;48.322;16.204;2024-02-23T13:40:17;9.10;99.90
25640;DHT22;13497;48.322;16.204;2024-02-23T13:42:44;9.00;99.90
25640;DHT22;13497;48.322;16.204;2024-02-23T13:45:15;9.00;99.90
25640;DHT22;13497;48.322;16.204;2024-02-23T13:47:42;8.90;99.90
25640;DHT22;13497;48.322;16.204;2024-02-23T13:50:09;8.80;99.90
25640;DHT22;13497;48.322;16.204;2024-02-23T13:52:34;8.80;99.90
25640;DHT22;13497;48.322;16.204;2024-02-23T13:55:00;8.80;99.90
25640;DHT22;13497;48.322;16.204;2024-02-23T13:57:26;8.70;99.90
25640;DHT22;13497;48.322;16.204;2024-02-23T13:59:51;8.80;99.90
25640;DHT22;13497;48.322;16.204;2024-02-23T14:02:25;8.80;99.90
25640;DHT22;13497;48.322;16.204;2024-02-23T14:04:52;8.80;99.90
25640;DHT22;13497;48.322;16.204;2024-02-23T14:07:17;8.80;99.90
25640;DHT22;13497;48.322;16.204;2024-02-23T14:09:43;8.70;99.90
25640;DHT22;13497;48.322;16.204;2024-02-23T14:12:09;8.70;99.90
25640;DHT22;13497;48.322;16.204;2024-02-23T14:14:35;8.80;99.90
25640;DHT22;13497;48.322;16.204;2024-02-23T14:17:00;8.90;99.90
25640;DHT22;13497;48.322;16.204;2024-02-23T14:19:26;8.90;99.90
25640;DHT22;13497;48.322;16.204;2024-02-23T14:21:52;8.90;99.90
25640;DHT22;13497;48.322;16.204;2024-02-23T14:24:18;9.00;99.90
25640;DHT22;13497;48.322;16.204;2024-02-23T14:26:43;9.00;99.90
25640;DHT22;13497;48.322;16.204;2024-02-23T14:29:09;9.00;99.90
25640;DHT22;13497;48.322;16.204;2024-02-23T14:31:35;9.00;99.90
25640;DHT22;13497;48.322;16.204;2024-02-23T14:34:00;9.10;99.90
25640;DHT22;13497;48.322;16.204;2024-02-23T14:36:26;9.10;99.90
25640;DHT22;13497;48.322;16.204;2024-02-23T14:38:52;9.10;99.90
25640;DHT22;13497;48.322;16.204;2024-02-23T14:41:18;9.00;99.90
25640;DHT22;13497;48.322;16.204;2024-02-23T14:43:44;9.00;99.90
25640;DHT22;13497;48.322;16.204;2024-02-23T14:46:09;8.80;99.90
25640;DHT22;13497;48.322;16.204;2024-02-23T14:48:35;8.80;99.90
25640;DHT22;13497;48.322;16.204;2024-02-23T14:51:01;8.70;99.90
25640;DHT22;13497;48.322;16.204;2024-02-23T14:53:29;8.80;99.90
25640;DHT22;13497;48.322;16.204;2024-02-23T14:55:55;8.80;99.90
25640;DHT22;13497;48.322;16.204;2024-02-23T14:58:20;8.90;99.90
25640;DHT22;13497;48.322;16.204;2024-02-23T15:00:46;9.10;99.90
25640;DHT22;13497;48.322;16.204;2024-02-23T15:03:13;9.20;99.90
25640;DHT22;13497;48.322;16.204;2024-02-23T15:05:39;9.20;99.90
25640;DHT22;13497;48.322;16.204;2024-02-23T15:08:06;9.10;99.90
25640;DHT22;13497;48.322;16.204;2024-02-23T15:10:32;9.00;99.90
25640;DHT22;13497;48.322;16.204;2024-02-23T15:12:58;9.10;99.90
25640;DHT22;13497;48.322;16.204;2024-02-23T15:15:24;8.90;99.90
25640;DHT22;13497;48.322;16.204;2024-02-23T15:17:50;8.90;99.90
25640;DHT22;13497;48.322;16.204;2024-02-23T15:20:15;8.90;99.90
25640;DHT22;13497;48.322;16.204;2024-02-23T15:22:41;8.90;99.90